sensor_id;sensor_type;location;lat;lon;timestamp;temperature;humidity
17489;DHT22;8861;52.644;4.734;2023-04-25T00:01:02;6.80;99.90
17489;DHT22;8861;52.644;4.734;2023-04-25T00:03:29;6.90;99.90
17489;DHT22;8861;52.644;4.734;2023-04-25T00:05:56;6.80;99.90
17489;DHT22;8861;52.644;4.734;2023-04-25T00:08:24;6.70;99.90
17489;DHT22;8861;52.644;4.734;2023-04-25T00:10:51;6.70;99.90
17489;DHT22;8861;52.644;4.734;2023-04-25T00:13:19;6.70;99.90
17489;DHT22;8861;52.644;4.734;2023-04-25T00:15:47;6.80;99.90
17489;DHT22;8861;52.644;4.734;2023-04-25T00:18:14;6.90;99.90
17489;DHT22;8861;52.644;4.734;2023-04-25T00:20:41;7.00;99.90
17489;DHT22;8861;52.644;4.734;2023-04-25T00:23:12;7.00;99.90
17489;DHT22;8861;52.644;4.734;2023-04-25T00:25:43;7.10;99.90
17489;DHT22;8861;52.644;4.734;2023-04-25T00:28:10;7.10;99.90
17489;DHT22;8861;52.644;4.734;2023-04-25T00:30:38;7.20;99.90
17489;DHT22;8861;52.644;4.734;2023-04-25T00:33:06;7.20;99.90
17489;DHT22;8861;52.644;4.734;2023-04-25T00:35:33;7.30;99.90
17489;DHT22;8861;52.644;4.734;2023-04-25T00:38:01;7.30;99.90
17489;DHT22;8861;52.644;4.734;2023-04-25T00:40:28;7.30;99.90
17489;DHT22;8861;52.644;4.734;2023-04-25T00:42:55;7.20;99.90
17489;DHT22;8861;52.644;4.734;2023-04-25T00:45:21;7.20;99.90
17489;DHT22;8861;52.644;4.734;2023-04-25T00:47:55;7.10;99.90
17489;DHT22;8861;52.644;4.734;2023-04-25T00:50:22;7.00;99.90
17489;DHT22;8861;52.644;4.734;2023-04-25T00:52:50;6.90;99.90
17489;DHT22;8861;52.644;4.734;2023-04-25T00:55:17;6.90;99.90
17489;DHT22;8861;52.644;4.734;2023-04-25T00:57:44;6.80;99.90
17489;DHT22;8861;52.644;4.734;2023-04-25T01:00:12;6.70;99.90
17489;DHT22;8861;52.644;4.734;2023-04-25T01:02:40;6.70;99.90
17489;DHT22;8861;52.644;4.734;2023-04-25T01:05:09;6.60;99.90
17489;DHT22;8861;52.644;4.734;2023-04-25T01:07:36;6.70;99.90
17489;DHT22;8861;52.644;4.734;2023-04-25T01:10:03;6.60;99.90
17489;DHT22;8861;52.644;4.734;2023-04-25T01:12:31;6.60;99.90
17489;DHT22;8861;52.644;4.734;2023-04-25T01:14:58;6.50;99.90
17489;DHT22;8861;52.644;4.734;2023-04-25T01:17:25;6.50;99.90
17489;DHT22;8861;52.644;4.734;2023-04-25T01:19:52;6.40;99.90
17489;DHT22;8861;52.644;4.734;2023-04-25T01:22:21;6.40;99.90
17489;DHT22;8861;52.644;4.734;2023-04-25T01:24:48;6.30;99.90
17489;DHT22;8861;52.644;4.734;2023-04-25T01:27:15;6.30;99.90
17489;DHT22;8861;52.644;4.734;2023-04-25T01:29:43;6.30;99.90
17489;DHT22;8861;52.644;4.734;2023-04-25T01:32:10;6.30;99.90
17489;DHT22;8861;52.644;4.734;2023-04-25T01:34:37;6.30;99.90
17489;DHT22;8861;52.644;4.734;2023-04-25T01:37:04;6.30;99.90
17489;DHT22;8861;52.644;4.734;2023-04-25T01:39:33;6.20;99.90
17489;DHT22;8861;52.644;4.734;2023-04-25T01:42:00;6.30;99.90
17489;DHT22;8861;52.644;4.734;2023-04-25T01:44:27;6.40;99.90
17489;DHT22;8861;52.644;4.734;2023-04-25T01:46:54;6.50;99.90
17489;DHT22;8861;52.644;4.734;2023-04-25T01:49:21;6.60;99.90
17489;DHT22;8861;52.644;4.734;2023-04-25T01:51:49;6.70;99.90
17489;DHT22;8861;52.644;4.734;2023-04-25T01:54:17;6.70;99.90
17489;DHT22;8861;52.644;4.734;2023-04-25T01:56:50;6.80;99.90
17489;DHT22;8861;52.644;4.734;2023-04-25T01:59:18;6.80;99.90
17489;DHT22;8861;52.644;4.734;2023-04-25T02:01:47;6.80;99.90
17489;DHT22;8861;52.644;4.734;2023-04-25T02:04:14;6.80;99.90
17489;DHT22;8861;52.644;4.734;2023-04-25T02:06:41;6.90;99.90
17489;DHT22;8861;52.644;4.734;2023-04-25T02:09:08;6.90;99.90
17489;DHT22;8861;52.644;4.734;2023-04-25T02:11:35;7.00;99.90
17489;DHT22;8861;52.644;4.734;2023-04-25T02:14:03;6.90;99.90
17489;DHT22;8861;52.644;4.734;2023-04-25T02:16:30;6.90;99.90
17489;DHT22;8861;52.644;4.734;2023-04-25T02:18:57;7.00;99.90
17489;DHT22;8861;52.644;4.734;2023-04-25T02:21:24;7.00;99.90
17489;DHT22;8861;52.644;4.734;2023-04-25T02:23:52;7.00;99.90
17489;DHT22;8861;52.644;4.734;2023-04-25T02:26:19;6.90;99.90
17489;DHT22;8861;52.644;4.734;2023-04-25T02:28:46;6.90;99.90
17489;DHT22;8861;52.644;4.734;2023-04-25T02:31:15;6.90;99.90
17489;DHT22;8861;52.644;4.734;2023-04-25T02:33:42;7.00;99.90
17489;DHT22;8861;52.644;4.734;2023-04-25T02:36:09;6.90;99.90
17489;DHT22;8861;52.644;4.734;2023-04-25T02:38:36;6.90;99.90
17489;DHT22;8861;52.644;4.734;2023-04-25T02:41:03;6.80;99.90
17489;DHT22;8861;52.644;4.734;2023-04-25T02:43:30;6.70;99.90
17489;DHT22;8861;52.644;4.734;2023-04-25T02:45:57;6.70;99.90
17489;DHT22;8861;52.644;4.734;2023-04-25T02:48:25;6.50;99.90
17489;DHT22;8861;52.644;4.734;2023-04-25T02:50:52;6.40;99.90
17489;DHT22;8861;52.644;4.734;2023-04-25T02:53:19;6.30;99.90
17489;DHT22;8861;52.644;4.734;2023-04-25T02:55:46;6.20;99.90
17489;DHT22;8861;52.644;4.734;2023-04-25T02:58:13;6.20;99.90
17489;DHT22;8861;52.644;4.734;2023-04-25T03:00:41;6.30;99.90
17489;DHT22;8861;52.644;4.734;2023-04-25T03:03:08;6.30;99.90
17489;DHT22;8861;52.644;4.734;2023-04-25T03:05:36;6.30;99.90
17489;DHT22;8861;52.644;4.734;2023-04-25T03:08:03;6.30;99.90
17489;DHT22;8861;52.644;4.734;2023-04-25T03:10:30;6.30;99.90
17489;DHT22;8861;52.644;4.734;2023-04-25T03:12:57;6.30;99.90
17489;DHT22;8861;52.644;4.734;2023-04-25T03:15:24;6.40;99.90
17489;DHT22;8861;52.644;4.734;2023-04-25T03:17:51;6.40;99.90
17489;DHT22;8861;52.644;4.734;2023-04-25T03:20:18;6.40;99.90
17489;DHT22;8861;52.644;4.734;2023-04-25T03:22:47;6.40;99.90
17489;DHT22;8861;52.644;4.734;2023-04-25T03:25:14;6.50;99.90
17489;DHT22;8861;52.644;4.734;2023-04-25T03:27:41;6.50;99.90
17489;DHT22;8861;52.644;4.734;2023-04-25T03:30:08;6.50;99.90
17489;DHT22;8861;52.644;4.734;2023-04-25T03:32:35;6.60;99.90
17489;DHT22;8861;52.644;4.734;2023-04-25T03:35:02;6.60;99.90
17489;DHT22;8861;52.644;4.734;2023-04-25T03:37:29;6.60;99.90
17489;DHT22;8861;52.644;4.734;2023-04-25T03:39:58;6.60;99.90
17489;DHT22;8861;52.644;4.734;2023-04-25T03:42:25;6.60;99.90
17489;DHT22;8861;52.644;4.734;2023-04-25T03:44:51;6.60;99.90
17489;DHT22;8861;52.644;4.734;2023-04-25T03:47:19;6.70;99.90
17489;DHT22;8861;52.644;4.734;2023-04-25T03:49:45;6.70;99.90
17489;DHT22;8861;52.644;4.734;2023-04-25T03:52:12;6.70;99.90
17489;DHT22;8861;52.644;4.734;2023-04-25T03:54:39;6.70;99.90
17489;DHT22;8861;52.644;4.734;2023-04-25T03:57:07;6.70;99.90
17489;DHT22;8861;52.644;4.734;2023-04-25T03:59:36;6.70;99.90
17489;DHT22;8861;52.644;4.734;2023-04-25T04:02:03;6.70;99.90
17489;DHT22;8861;52.644;4.734;2023-04-25T04:04:29;6.70;99.90
17489;DHT22;8861;52.644;4.734;2023-04-25T04:06:56;6.70;99.90
17489;DHT22;8861;52.644;4.734;2023-04-25T04:09:23;6.70;99.90
17489;DHT22;8861;52.644;4.734;2023-04-25T04:11:50;6.70;99.90
17489;DHT22;8861;52.644;4.734;2023-04-25T04:14:19;6.70;99.90
17489;DHT22;8861;52.644;4.734;2023-04-25T04:16:46;6.70;99.90
17489;DHT22;8861;52.644;4.734;2023-04-25T04:19:13;6.60;99.90
17489;DHT22;8861;52.644;4.734;2023-04-25T04:21:40;6.50;99.90
17489;DHT22;8861;52.644;4.734;2023-04-25T04:24:07;6.40;99.90
17489;DHT22;8861;52.644;4.734;2023-04-25T04:26:35;6.30;99.90
17489;DHT22;8861;52.644;4.734;2023-04-25T04:29:04;6.30;99.90
17489;DHT22;8861;52.644;4.734;2023-04-25T04:31:32;6.20;99.90
17489;DHT22;8861;52.644;4.734;2023-04-25T04:33:59;6.10;99.90
17489;DHT22;8861;52.644;4.734;2023-04-25T04:36:27;6.20;99.90
17489;DHT22;8861;52.644;4.734;2023-04-25T04:38:54;6.20;99.90
17489;DHT22;8861;52.644;4.734;2023-04-25T04:41:22;6.20;99.90
17489;DHT22;8861;52.644;4.734;2023-04-25T04:43:49;6.20;99.90
17489;DHT22;8861;52.644;4.734;2023-04-25T04:46:16;6.20;99.90
17489;DHT22;8861;52.644;4.734;2023-04-25T04:48:45;6.20;99.90
17489;DHT22;8861;52.644;4.734;2023-04-25T04:51:12;6.10;99.90
17489;DHT22;8861;52.644;4.734;2023-04-25T04:53:39;6.10;99.90
17489;DHT22;8861;52.644;4.734;2023-04-25T04:56:06;6.20;99.90
17489;DHT22;8861;52.644;4.734;2023-04-25T04:58:33;6.20;99.90
17489;DHT22;8861;52.644;4.734;2023-04-25T05:01:02;6.30;99.90
17489;DHT22;8861;52.644;4.734;2023-04-25T05:03:29;6.40;99.90
17489;DHT22;8861;52.644;4.734;2023-04-25T05:05:57;6.50;99.90
17489;DHT22;8861;52.644;4.734;2023-04-25T05:08:24;6.60;99.90
17489;DHT22;8861;52.644;4.734;2023-04-25T05:10:51;6.70;99.90
17489;DHT22;8861;52.644;4.734;2023-04-25T05:13:18;6.70;99.90
17489;DHT22;8861;52.644;4.734;2023-04-25T05:15:45;6.80;99.90
17489;DHT22;8861;52.644;4.734;2023-04-25T05:18:12;6.80;99.90
17489;DHT22;8861;52.644;4.734;2023-04-25T05:20:39;6.80;99.90
17489;DHT22;8861;52.644;4.734;2023-04-25T05:23:07;6.80;99.90
17489;DHT22;8861;52.644;4.734;2023-04-25T05:25:34;6.80;99.90
17489;DHT22;8861;52.644;4.734;2023-04-25T05:28:01;6.80;99.90
17489;DHT22;8861;52.644;4.734;2023-04-25T05:30:28;6.80;99.90
17489;DHT22;8861;52.644;4.734;2023-04-25T05:32:55;6.90;99.90
17489;DHT22;8861;52.644;4.734;2023-04-25T05:35:22;7.00;99.90
17489;DHT22;8861;52.644;4.734;2023-04-25T05:37:49;7.00;99.90
17489;DHT22;8861;52.644;4.734;2023-04-25T05:40:17;7.00;99.90
17489;DHT22;8861;52.644;4.734;2023-04-25T05:42:44;7.10;99.90
17489;DHT22;8861;52.644;4.734;2023-04-25T05:45:11;7.20;99.90
17489;DHT22;8861;52.644;4.734;2023-04-25T05:47:38;7.20;99.90
17489;DHT22;8861;52.644;4.734;2023-04-25T05:50:06;7.30;99.90
17489;DHT22;8861;52.644;4.734;2023-04-25T05:52:34;7.40;99.90
17489;DHT22;8861;52.644;4.734;2023-04-25T05:55:01;7.50;99.90
17489;DHT22;8861;52.644;4.734;2023-04-25T05:57:29;7.50;99.90
17489;DHT22;8861;52.644;4.734;2023-04-25T05:59:56;7.50;99.90
17489;DHT22;8861;52.644;4.734;2023-04-25T06:02:23;7.50;99.90
17489;DHT22;8861;52.644;4.734;2023-04-25T06:04:50;7.50;99.90
17489;DHT22;8861;52.644;4.734;2023-04-25T06:07:17;7.40;99.90
17489;DHT22;8861;52.644;4.734;2023-04-25T06:09:45;7.40;99.90
17489;DHT22;8861;52.644;4.734;2023-04-25T06:12:12;7.30;99.90
17489;DHT22;8861;52.644;4.734;2023-04-25T06:14:40;7.30;99.90
17489;DHT22;8861;52.644;4.734;2023-04-25T06:17:07;7.30;99.90
17489;DHT22;8861;52.644;4.734;2023-04-25T06:19:35;7.40;99.90
17489;DHT22;8861;52.644;4.734;2023-04-25T06:22:02;7.60;99.90
17489;DHT22;8861;52.644;4.734;2023-04-25T06:24:29;7.80;99.90
17489;DHT22;8861;52.644;4.734;2023-04-25T06:26:56;7.80;99.90
17489;DHT22;8861;52.644;4.734;2023-04-25T06:29:23;7.70;99.90
17489;DHT22;8861;52.644;4.734;2023-04-25T06:31:52;7.60;99.90
17489;DHT22;8861;52.644;4.734;2023-04-25T06:34:19;7.60;99.90
17489;DHT22;8861;52.644;4.734;2023-04-25T06:36:46;7.60;99.90
17489;DHT22;8861;52.644;4.734;2023-04-25T06:39:13;7.80;99.90
17489;DHT22;8861;52.644;4.734;2023-04-25T06:41:40;8.00;99.90
17489;DHT22;8861;52.644;4.734;2023-04-25T06:44:07;8.10;99.90
17489;DHT22;8861;52.644;4.734;2023-04-25T06:46:34;8.30;99.90
17489;DHT22;8861;52.644;4.734;2023-04-25T06:49:03;8.50;99.90
17489;DHT22;8861;52.644;4.734;2023-04-25T06:51:30;8.70;99.90
17489;DHT22;8861;52.644;4.734;2023-04-25T06:53:57;8.80;99.90
17489;DHT22;8861;52.644;4.734;2023-04-25T06:56:24;8.90;99.90
17489;DHT22;8861;52.644;4.734;2023-04-25T06:58:51;8.80;99.90
17489;DHT22;8861;52.644;4.734;2023-04-25T07:01:18;8.70;99.90
17489;DHT22;8861;52.644;4.734;2023-04-25T07:03:45;8.60;99.90
17489;DHT22;8861;52.644;4.734;2023-04-25T07:06:13;8.50;99.90
17489;DHT22;8861;52.644;4.734;2023-04-25T07:08:41;8.50;99.90
17489;DHT22;8861;52.644;4.734;2023-04-25T07:11:07;8.60;99.90
17489;DHT22;8861;52.644;4.734;2023-04-25T07:13:34;8.70;99.90
17489;DHT22;8861;52.644;4.734;2023-04-25T07:16:02;8.90;99.90
17489;DHT22;8861;52.644;4.734;2023-04-25T07:18:29;9.00;99.90
17489;DHT22;8861;52.644;4.734;2023-04-25T07:20:56;9.00;99.90
17489;DHT22;8861;52.644;4.734;2023-04-25T07:23:24;8.90;99.90
17489;DHT22;8861;52.644;4.734;2023-04-25T07:25:51;8.70;99.90
17489;DHT22;8861;52.644;4.734;2023-04-25T07:28:18;8.50;99.90
17489;DHT22;8861;52.644;4.734;2023-04-25T07:30:45;8.40;99.90
17489;DHT22;8861;52.644;4.734;2023-04-25T07:33:12;8.30;99.90
17489;DHT22;8861;52.644;4.734;2023-04-25T07:35:39;8.30;99.90
17489;DHT22;8861;52.644;4.734;2023-04-25T07:38:06;8.30;99.90
17489;DHT22;8861;52.644;4.734;2023-04-25T07:40:35;8.30;99.90
17489;DHT22;8861;52.644;4.734;2023-04-25T07:43:01;8.50;99.90
17489;DHT22;8861;52.644;4.734;2023-04-25T07:45:28;8.70;99.90
17489;DHT22;8861;52.644;4.734;2023-04-25T07:47:55;9.00;99.90
17489;DHT22;8861;52.644;4.734;2023-04-25T07:50:22;8.90;99.90
17489;DHT22;8861;52.644;4.734;2023-04-25T07:52:49;8.50;99.90
17489;DHT22;8861;52.644;4.734;2023-04-25T07:55:16;8.20;99.90
17489;DHT22;8861;52.644;4.734;2023-04-25T07:57:45;7.70;99.90
17489;DHT22;8861;52.644;4.734;2023-04-25T08:00:12;7.40;99.90
17489;DHT22;8861;52.644;4.734;2023-04-25T08:02:40;7.20;99.90
17489;DHT22;8861;52.644;4.734;2023-04-25T08:05:08;7.00;99.90
17489;DHT22;8861;52.644;4.734;2023-04-25T08:07:37;6.90;99.90
17489;DHT22;8861;52.644;4.734;2023-04-25T08:10:05;6.90;99.90
17489;DHT22;8861;52.644;4.734;2023-04-25T08:12:32;7.10;99.90
17489;DHT22;8861;52.644;4.734;2023-04-25T08:15:00;7.30;99.90
17489;DHT22;8861;52.644;4.734;2023-04-25T08:17:27;7.70;99.90
17489;DHT22;8861;52.644;4.734;2023-04-25T08:19:54;8.10;99.90
17489;DHT22;8861;52.644;4.734;2023-04-25T08:22:22;8.50;99.90
17489;DHT22;8861;52.644;4.734;2023-04-25T08:24:49;8.80;99.90
17489;DHT22;8861;52.644;4.734;2023-04-25T08:27:16;9.10;99.90
17489;DHT22;8861;52.644;4.734;2023-04-25T08:29:43;9.30;99.90
17489;DHT22;8861;52.644;4.734;2023-04-25T08:32:12;9.20;99.90
17489;DHT22;8861;52.644;4.734;2023-04-25T08:34:39;9.00;99.90
17489;DHT22;8861;52.644;4.734;2023-04-25T08:37:08;8.80;99.90
17489;DHT22;8861;52.644;4.734;2023-04-25T08:39:35;8.60;99.90
17489;DHT22;8861;52.644;4.734;2023-04-25T08:42:04;8.30;99.90
17489;DHT22;8861;52.644;4.734;2023-04-25T08:44:33;8.20;99.90
17489;DHT22;8861;52.644;4.734;2023-04-25T08:47:02;8.10;99.90
17489;DHT22;8861;52.644;4.734;2023-04-25T08:49:32;8.10;99.90
17489;DHT22;8861;52.644;4.734;2023-04-25T08:52:01;8.10;99.90
17489;DHT22;8861;52.644;4.734;2023-04-25T08:54:28;8.20;99.90
17489;DHT22;8861;52.644;4.734;2023-04-25T08:56:57;8.50;99.90
17489;DHT22;8861;52.644;4.734;2023-04-25T08:59:25;8.80;99.90
17489;DHT22;8861;52.644;4.734;2023-04-25T09:01:52;9.00;99.90
17489;DHT22;8861;52.644;4.734;2023-04-25T09:04:19;9.20;99.90
17489;DHT22;8861;52.644;4.734;2023-04-25T09:06:48;9.40;99.90
17489;DHT22;8861;52.644;4.734;2023-04-25T09:09:15;9.70;99.90
17489;DHT22;8861;52.644;4.734;2023-04-25T09:11:42;9.90;99.90
17489;DHT22;8861;52.644;4.734;2023-04-25T09:14:13;10.10;99.90
17489;DHT22;8861;52.644;4.734;2023-04-25T09:17:01;10.30;99.90
17489;DHT22;8861;52.644;4.734;2023-04-25T09:19:30;10.40;99.90
17489;DHT22;8861;52.644;4.734;2023-04-25T09:22:00;10.30;99.90
17489;DHT22;8861;52.644;4.734;2023-04-25T09:24:32;9.90;99.90
17489;DHT22;8861;52.644;4.734;2023-04-25T09:26:59;9.50;99.90
17489;DHT22;8861;52.644;4.734;2023-04-25T09:29:30;9.00;99.90
17489;DHT22;8861;52.644;4.734;2023-04-25T09:32:14;8.50;99.90
17489;DHT22;8861;52.644;4.734;2023-04-25T09:34:42;8.20;99.90
17489;DHT22;8861;52.644;4.734;2023-04-25T09:37:11;7.90;99.90
17489;DHT22;8861;52.644;4.734;2023-04-25T09:39:38;7.80;99.90
17489;DHT22;8861;52.644;4.734;2023-04-25T09:42:05;7.90;99.90
17489;DHT22;8861;52.644;4.734;2023-04-25T09:44:32;8.00;99.90
17489;DHT22;8861;52.644;4.734;2023-04-25T09:46:59;8.10;99.90
17489;DHT22;8861;52.644;4.734;2023-04-25T09:49:28;8.00;99.90
17489;DHT22;8861;52.644;4.734;2023-04-25T09:51:55;7.90;99.90
17489;DHT22;8861;52.644;4.734;2023-04-25T09:54:25;7.90;99.90
17489;DHT22;8861;52.644;4.734;2023-04-25T09:56:53;7.90;99.90
17489;DHT22;8861;52.644;4.734;2023-04-25T09:59:21;8.10;99.90
17489;DHT22;8861;52.644;4.734;2023-04-25T10:01:49;8.40;99.90
17489;DHT22;8861;52.644;4.734;2023-04-25T10:04:20;8.60;99.90
17489;DHT22;8861;52.644;4.734;2023-04-25T10:06:49;8.70;99.90
17489;DHT22;8861;52.644;4.734;2023-04-25T10:09:20;8.80;99.90
17489;DHT22;8861;52.644;4.734;2023-04-25T10:11:50;8.90;99.90
17489;DHT22;8861;52.644;4.734;2023-04-25T10:14:18;9.00;99.90
17489;DHT22;8861;52.644;4.734;2023-04-25T10:16:47;9.30;99.90
17489;DHT22;8861;52.644;4.734;2023-04-25T10:19:15;9.70;99.90
17489;DHT22;8861;52.644;4.734;2023-04-25T10:21:48;10.20;99.90
17489;DHT22;8861;52.644;4.734;2023-04-25T10:24:16;10.60;99.90
17489;DHT22;8861;52.644;4.734;2023-04-25T10:26:44;10.80;99.90
17489;DHT22;8861;52.644;4.734;2023-04-25T10:29:12;10.90;99.90
17489;DHT22;8861;52.644;4.734;2023-04-25T10:31:45;10.90;99.90
17489;DHT22;8861;52.644;4.734;2023-04-25T10:34:13;10.60;99.90
17489;DHT22;8861;52.644;4.734;2023-04-25T10:36:40;10.40;99.90
17489;DHT22;8861;52.644;4.734;2023-04-25T10:39:07;10.20;99.90
17489;DHT22;8861;52.644;4.734;2023-04-25T10:41:53;10.10;99.90
17489;DHT22;8861;52.644;4.734;2023-04-25T10:44:21;9.90;99.90
17489;DHT22;8861;52.644;4.734;2023-04-25T10:46:48;9.80;99.90
17489;DHT22;8861;52.644;4.734;2023-04-25T10:49:32;9.70;99.90
17489;DHT22;8861;52.644;4.734;2023-04-25T10:52:24;9.80;99.90
17489;DHT22;8861;52.644;4.734;2023-04-25T10:54:52;9.80;99.90
17489;DHT22;8861;52.644;4.734;2023-04-25T10:57:27;9.90;99.90
17489;DHT22;8861;52.644;4.734;2023-04-25T11:00:00;9.90;99.90
17489;DHT22;8861;52.644;4.734;2023-04-25T11:02:30;10.10;99.90
17489;DHT22;8861;52.644;4.734;2023-04-25T11:04:57;10.30;99.90
17489;DHT22;8861;52.644;4.734;2023-04-25T11:07:33;10.40;99.90
17489;DHT22;8861;52.644;4.734;2023-04-25T11:10:03;10.60;99.90
17489;DHT22;8861;52.644;4.734;2023-04-25T11:12:31;10.80;99.90
17489;DHT22;8861;52.644;4.734;2023-04-25T11:15:03;10.80;99.90
17489;DHT22;8861;52.644;4.734;2023-04-25T11:17:31;10.80;99.90
17489;DHT22;8861;52.644;4.734;2023-04-25T11:19:58;10.90;99.90
17489;DHT22;8861;52.644;4.734;2023-04-25T11:22:26;11.10;99.90
17489;DHT22;8861;52.644;4.734;2023-04-25T11:24:54;11.40;99.90
17489;DHT22;8861;52.644;4.734;2023-04-25T11:27:21;11.60;99.90
17489;DHT22;8861;52.644;4.734;2023-04-25T11:29:50;11.60;99.90
17489;DHT22;8861;52.644;4.734;2023-04-25T11:32:19;11.50;99.90
17489;DHT22;8861;52.644;4.734;2023-04-25T11:34:46;11.50;99.90
17489;DHT22;8861;52.644;4.734;2023-04-25T11:37:14;11.50;99.90
17489;DHT22;8861;52.644;4.734;2023-04-25T11:39:44;11.50;99.90
17489;DHT22;8861;52.644;4.734;2023-04-25T11:42:12;11.60;99.90
17489;DHT22;8861;52.644;4.734;2023-04-25T11:44:39;11.70;99.90
17489;DHT22;8861;52.644;4.734;2023-04-25T11:47:07;11.80;99.90
17489;DHT22;8861;52.644;4.734;2023-04-25T11:49:35;11.90;99.90
17489;DHT22;8861;52.644;4.734;2023-04-25T11:52:03;12.20;99.90
17489;DHT22;8861;52.644;4.734;2023-04-25T11:54:35;12.30;99.90
17489;DHT22;8861;52.644;4.734;2023-04-25T11:57:02;12.10;99.90
17489;DHT22;8861;52.644;4.734;2023-04-25T11:59:30;12.00;99.90
17489;DHT22;8861;52.644;4.734;2023-04-25T12:01:57;12.00;99.90
17489;DHT22;8861;52.644;4.734;2023-04-25T12:04:26;12.00;99.90
17489;DHT22;8861;52.644;4.734;2023-04-25T12:06:55;12.10;99.90
17489;DHT22;8861;52.644;4.734;2023-04-25T12:09:30;12.20;99.90
17489;DHT22;8861;52.644;4.734;2023-04-25T12:11:58;12.60;99.90
17489;DHT22;8861;52.644;4.734;2023-04-25T12:14:29;13.40;99.90
17489;DHT22;8861;52.644;4.734;2023-04-25T12:16:58;14.60;99.90
17489;DHT22;8861;52.644;4.734;2023-04-25T12:19:29;15.60;99.90
17489;DHT22;8861;52.644;4.734;2023-04-25T12:22:00;15.70;99.90
17489;DHT22;8861;52.644;4.734;2023-04-25T12:24:28;15.10;99.90
17489;DHT22;8861;52.644;4.734;2023-04-25T12:27:00;14.60;99.90
17489;DHT22;8861;52.644;4.734;2023-04-25T12:29:29;14.30;99.90
17489;DHT22;8861;52.644;4.734;2023-04-25T12:31:56;13.90;99.90
17489;DHT22;8861;52.644;4.734;2023-04-25T12:34:24;13.60;99.90
17489;DHT22;8861;52.644;4.734;2023-04-25T12:36:52;13.30;99.90
17489;DHT22;8861;52.644;4.734;2023-04-25T12:39:21;13.00;99.90
17489;DHT22;8861;52.644;4.734;2023-04-25T12:41:49;12.90;99.90
17489;DHT22;8861;52.644;4.734;2023-04-25T12:44:16;12.80;99.90
17489;DHT22;8861;52.644;4.734;2023-04-25T12:46:43;12.70;99.90
17489;DHT22;8861;52.644;4.734;2023-04-25T12:49:10;12.70;99.90
17489;DHT22;8861;52.644;4.734;2023-04-25T12:51:38;12.50;99.90
17489;DHT22;8861;52.644;4.734;2023-04-25T12:54:05;12.20;99.90
17489;DHT22;8861;52.644;4.734;2023-04-25T12:56:34;11.90;99.90
17489;DHT22;8861;52.644;4.734;2023-04-25T12:59:01;11.80;99.90
17489;DHT22;8861;52.644;4.734;2023-04-25T13:01:29;11.90;99.90
17489;DHT22;8861;52.644;4.734;2023-04-25T13:03:56;11.90;99.90
17489;DHT22;8861;52.644;4.734;2023-04-25T13:06:23;12.00;99.90
17489;DHT22;8861;52.644;4.734;2023-04-25T13:08:50;12.40;99.90
17489;DHT22;8861;52.644;4.734;2023-04-25T13:11:17;12.50;99.90
17489;DHT22;8861;52.644;4.734;2023-04-25T13:13:45;13.00;99.90
17489;DHT22;8861;52.644;4.734;2023-04-25T13:16:12;13.20;99.90
17489;DHT22;8861;52.644;4.734;2023-04-25T13:18:40;13.30;99.90
17489;DHT22;8861;52.644;4.734;2023-04-25T13:21:09;13.50;99.90
17489;DHT22;8861;52.644;4.734;2023-04-25T13:23:36;13.30;99.90
17489;DHT22;8861;52.644;4.734;2023-04-25T13:26:03;13.00;99.90
17489;DHT22;8861;52.644;4.734;2023-04-25T13:28:30;12.70;99.90
17489;DHT22;8861;52.644;4.734;2023-04-25T13:30:58;12.40;99.90
17489;DHT22;8861;52.644;4.734;2023-04-25T13:33:25;12.30;99.90
17489;DHT22;8861;52.644;4.734;2023-04-25T13:35:52;12.30;99.90
17489;DHT22;8861;52.644;4.734;2023-04-25T13:38:22;12.30;99.90
17489;DHT22;8861;52.644;4.734;2023-04-25T13:40:50;12.20;99.90
17489;DHT22;8861;52.644;4.734;2023-04-25T13:43:21;12.30;99.90
17489;DHT22;8861;52.644;4.734;2023-04-25T13:45:48;12.30;99.90
17489;DHT22;8861;52.644;4.734;2023-04-25T13:48:17;12.30;99.90
17489;DHT22;8861;52.644;4.734;2023-04-25T13:50:44;12.30;99.90
17489;DHT22;8861;52.644;4.734;2023-04-25T13:53:11;12.40;99.90
17489;DHT22;8861;52.644;4.734;2023-04-25T13:55:38;12.60;99.90
17489;DHT22;8861;52.644;4.734;2023-04-25T13:58:05;12.70;99.90
17489;DHT22;8861;52.644;4.734;2023-04-25T14:00:36;12.80;99.90
17489;DHT22;8861;52.644;4.734;2023-04-25T14:03:05;12.80;99.90
17489;DHT22;8861;52.644;4.734;2023-04-25T14:05:36;12.70;99.90
17489;DHT22;8861;52.644;4.734;2023-04-25T14:08:05;12.90;99.90
17489;DHT22;8861;52.644;4.734;2023-04-25T14:10:32;13.80;99.90
17489;DHT22;8861;52.644;4.734;2023-04-25T14:12:59;15.00;99.90
17489;DHT22;8861;52.644;4.734;2023-04-25T14:15:29;16.20;99.90
17489;DHT22;8861;52.644;4.734;2023-04-25T14:17:56;16.50;99.90
17489;DHT22;8861;52.644;4.734;2023-04-25T14:20:23;16.60;99.90
17489;DHT22;8861;52.644;4.734;2023-04-25T14:22:51;16.10;99.90
17489;DHT22;8861;52.644;4.734;2023-04-25T14:25:20;16.10;99.90
17489;DHT22;8861;52.644;4.734;2023-04-25T14:27:46;16.30;99.90
17489;DHT22;8861;52.644;4.734;2023-04-25T14:30:15;16.50;99.90
17489;DHT22;8861;52.644;4.734;2023-04-25T14:32:42;16.80;99.90
17489;DHT22;8861;52.644;4.734;2023-04-25T14:35:09;16.60;99.90
17489;DHT22;8861;52.644;4.734;2023-04-25T14:37:36;16.10;99.90
17489;DHT22;8861;52.644;4.734;2023-04-25T14:40:06;15.50;99.90
17489;DHT22;8861;52.644;4.734;2023-04-25T14:42:34;15.00;99.90
17489;DHT22;8861;52.644;4.734;2023-04-25T14:45:01;14.80;99.90
17489;DHT22;8861;52.644;4.734;2023-04-25T14:47:28;15.10;99.90
17489;DHT22;8861;52.644;4.734;2023-04-25T14:49:56;16.30;99.90
17489;DHT22;8861;52.644;4.734;2023-04-25T14:52:22;17.30;99.90
17489;DHT22;8861;52.644;4.734;2023-04-25T14:54:49;17.50;99.90
17489;DHT22;8861;52.644;4.734;2023-04-25T14:57:18;17.10;99.90
17489;DHT22;8861;52.644;4.734;2023-04-25T14:59:45;18.40;99.90
17489;DHT22;8861;52.644;4.734;2023-04-25T15:02:12;19.70;99.90
17489;DHT22;8861;52.644;4.734;2023-04-25T15:04:40;21.30;99.90
17489;DHT22;8861;52.644;4.734;2023-04-25T15:07:07;22.80;99.90
17489;DHT22;8861;52.644;4.734;2023-04-25T15:09:34;23.30;99.90
17489;DHT22;8861;52.644;4.734;2023-04-25T15:12:01;22.50;99.90
17489;DHT22;8861;52.644;4.734;2023-04-25T15:14:30;21.10;99.90
17489;DHT22;8861;52.644;4.734;2023-04-25T15:16:57;19.60;99.90
17489;DHT22;8861;52.644;4.734;2023-04-25T15:19:24;18.10;99.90
17489;DHT22;8861;52.644;4.734;2023-04-25T15:21:51;16.70;99.90
17489;DHT22;8861;52.644;4.734;2023-04-25T15:24:19;15.70;99.90
17489;DHT22;8861;52.644;4.734;2023-04-25T15:26:47;15.40;99.90
17489;DHT22;8861;52.644;4.734;2023-04-25T15:29:13;15.20;99.90
17489;DHT22;8861;52.644;4.734;2023-04-25T15:31:42;14.80;99.90
17489;DHT22;8861;52.644;4.734;2023-04-25T15:34:09;14.40;99.90
17489;DHT22;8861;52.644;4.734;2023-04-25T15:36:36;14.10;99.90
17489;DHT22;8861;52.644;4.734;2023-04-25T15:39:03;13.90;99.90
17489;DHT22;8861;52.644;4.734;2023-04-25T15:41:30;14.30;99.90
17489;DHT22;8861;52.644;4.734;2023-04-25T15:43:59;15.70;99.90
17489;DHT22;8861;52.644;4.734;2023-04-25T15:46:26;16.30;99.90
17489;DHT22;8861;52.644;4.734;2023-04-25T15:48:54;16.10;99.90
17489;DHT22;8861;52.644;4.734;2023-04-25T15:51:21;15.70;99.90
17489;DHT22;8861;52.644;4.734;2023-04-25T15:53:48;15.10;99.90
17489;DHT22;8861;52.644;4.734;2023-04-25T15:56:15;14.50;99.90
17489;DHT22;8861;52.644;4.734;2023-04-25T15:58:42;13.80;99.90
17489;DHT22;8861;52.644;4.734;2023-04-25T16:01:09;13.20;99.90